Herselt, Belgium
Current Conditions -  °F | °C
As of 5:25 PM on Saturday 25 Oct 2014 (Local Time) from EBDT Reporting Station
Overcast Overcast  
Wind Chill: 55°   Ceiling: 6500
Heat Index: 55°   Visibility: 6mi
Dew Point: 50°   Wind: 6mph
Humidity: 82%   Direction: 270°W
Pressure: 30.12"   Gusts: NA
Location:  51.05°N, 4.88°E
Report Text: EBDT 251525Z AUTO 27005KT 9999 FEW028/// OVC065/// 13/10 Q1020 BLU
Loading
Personal Weather Stations






























Interactive Weather Map
Tropical Storm Tracking
New forecast layout! Learn more

10-Day Weather Forecast

Advertisements
Track Severe Weather on mobile